sensor_id;sensor_type;location;lat;lon;timestamp;pressure;altitude;pressure_sealevel;temperature;humidity
38225;BME280;24025;48.138;11.428;2023-07-20T00:01:24;95340.44;;;21.72;48.15
38225;BME280;24025;48.138;11.428;2023-07-20T00:03:56;95344.59;;;21.64;48.15
38225;BME280;24025;48.138;11.428;2023-07-20T00:06:27;95345.88;;;21.72;48.04
38225;BME280;24025;48.138;11.428;2023-07-20T00:08:59;95346.00;;;21.68;48.22
38225;BME280;24025;48.138;11.428;2023-07-20T00:11:30;95344.13;;;21.43;48.70
38225;BME280;24025;48.138;11.428;2023-07-20T00:14:02;95344.13;;;21.43;48.57
38225;BME280;24025;48.138;11.428;2023-07-20T00:16:34;95352.25;;;21.43;48.67
38225;BME280;24025;48.138;11.428;2023-07-20T00:19:05;95340.34;;;21.28;49.16
38225;BME280;24025;48.138;11.428;2023-07-20T00:21:38;95335.66;;;21.29;48.83
38225;BME280;24025;48.138;11.428;2023-07-20T00:24:12;95336.09;;;21.14;49.53
38225;BME280;24025;48.138;11.428;2023-07-20T00:26:44;95341.63;;;21.11;49.69
38225;BME280;24025;48.138;11.428;2023-07-20T00:29:15;95342.06;;;21.09;49.98
38225;BME280;24025;48.138;11.428;2023-07-20T00:31:47;95347.72;;;21.15;49.45
38225;BME280;24025;48.138;11.428;2023-07-20T00:34:20;95358.97;;;21.26;48.81
38225;BME280;24025;48.138;11.428;2023-07-20T00:36:52;95360.63;;;21.24;49.58
38225;BME280;24025;48.138;11.428;2023-07-20T00:39:23;95357.28;;;21.32;49.04
38225;BME280;24025;48.138;11.428;2023-07-20T00:41:55;95354.34;;;21.39;49.18
38225;BME280;24025;48.138;11.428;2023-07-20T00:44:27;95353.00;;;21.44;49.30
38225;BME280;24025;48.138;11.428;2023-07-20T00:46:58;95360.28;;;21.47;49.04
38225;BME280;24025;48.138;11.428;2023-07-20T00:49:31;95359.41;;;21.50;48.87
38225;BME280;24025;48.138;11.428;2023-07-20T00:52:03;95358.25;;;21.38;49.06
38225;BME280;24025;48.138;11.428;2023-07-20T00:54:36;95359.00;;;21.39;49.44
38225;BME280;24025;48.138;11.428;2023-07-20T00:57:09;95363.09;;;21.43;49.28
38225;BME280;24025;48.138;11.428;2023-07-20T00:59:40;95369.41;;;21.40;49.49
38225;BME280;24025;48.138;11.428;2023-07-20T01:02:12;95367.03;;;21.42;49.07
38225;BME280;24025;48.138;11.428;2023-07-20T01:04:44;95363.75;;;21.47;48.95
38225;BME280;24025;48.138;11.428;2023-07-20T01:08:01;95359.63;;;21.43;49.15
38225;BME280;24025;48.138;11.428;2023-07-20T01:13:10;95351.28;;;21.37;49.44
38225;BME280;24025;48.138;11.428;2023-07-20T01:15:49;95355.94;;;21.37;49.28
38225;BME280;24025;48.138;11.428;2023-07-20T01:18:20;95350.53;;;21.37;48.93
38225;BME280;24025;48.138;11.428;2023-07-20T01:20:57;95353.69;;;21.35;49.37
38225;BME280;24025;48.138;11.428;2023-07-20T01:29:22;95354.00;;;21.37;49.72
38225;BME280;24025;48.138;11.428;2023-07-20T01:31:57;95353.56;;;21.39;50.09
38225;BME280;24025;48.138;11.428;2023-07-20T01:34:29;95349.31;;;21.38;49.59
38225;BME280;24025;48.138;11.428;2023-07-20T01:37:01;95352.03;;;21.38;49.79
38225;BME280;24025;48.138;11.428;2023-07-20T01:39:34;95355.19;;;21.36;50.05
38225;BME280;24025;48.138;11.428;2023-07-20T01:42:07;95354.44;;;21.36;49.59
38225;BME280;24025;48.138;11.428;2023-07-20T01:44:38;95354.13;;;21.21;49.93
38225;BME280;24025;48.138;11.428;2023-07-20T01:47:10;95352.47;;;21.24;49.77
38225;BME280;24025;48.138;11.428;2023-07-20T01:49:41;95354.22;;;21.17;50.36
38225;BME280;24025;48.138;11.428;2023-07-20T01:52:13;95352.72;;;21.04;50.51
38225;BME280;24025;48.138;11.428;2023-07-20T01:54:44;95357.69;;;20.92;50.53
38225;BME280;24025;48.138;11.428;2023-07-20T01:57:16;95359.19;;;20.93;50.20
38225;BME280;24025;48.138;11.428;2023-07-20T01:59:47;95369.19;;;20.97;49.67
38225;BME280;24025;48.138;11.428;2023-07-20T02:02:19;95367.13;;;21.01;49.56
38225;BME280;24025;48.138;11.428;2023-07-20T02:04:52;95362.44;;;21.01;49.86
38225;BME280;24025;48.138;11.428;2023-07-20T02:07:23;95369.38;;;21.02;49.54
38225;BME280;24025;48.138;11.428;2023-07-20T02:09:55;95369.06;;;21.00;49.15
38225;BME280;24025;48.138;11.428;2023-07-20T02:12:26;95372.09;;;21.02;49.28
38225;BME280;24025;48.138;11.428;2023-07-20T02:14:58;95360.41;;;21.05;49.29
38225;BME280;24025;48.138;11.428;2023-07-20T02:17:30;95360.84;;;21.04;49.45
38225;BME280;24025;48.138;11.428;2023-07-20T02:20:01;95383.50;;;20.97;49.58
38225;BME280;24025;48.138;11.428;2023-07-20T02:22:33;95368.19;;;20.90;49.83
38225;BME280;24025;48.138;11.428;2023-07-20T02:25:05;95368.75;;;20.85;49.26
38225;BME280;24025;48.138;11.428;2023-07-20T02:27:38;95370.16;;;20.77;49.55
38225;BME280;24025;48.138;11.428;2023-07-20T02:30:10;95361.75;;;20.46;49.92
38225;BME280;24025;48.138;11.428;2023-07-20T02:32:41;95363.09;;;20.38;49.69
38225;BME280;24025;48.138;11.428;2023-07-20T02:35:17;95363.50;;;20.53;49.89
38225;BME280;24025;48.138;11.428;2023-07-20T02:37:48;95361.75;;;20.46;49.67
38225;BME280;24025;48.138;11.428;2023-07-20T02:40:20;95366.53;;;20.55;48.98
38225;BME280;24025;48.138;11.428;2023-07-20T02:42:52;95367.72;;;20.54;48.95
38225;BME280;24025;48.138;11.428;2023-07-20T02:45:23;95374.53;;;20.46;49.21
38225;BME280;24025;48.138;11.428;2023-07-20T02:47:55;95392.13;;;20.25;49.05
38225;BME280;24025;48.138;11.428;2023-07-20T02:50:26;95393.22;;;20.40;49.40
38225;BME280;24025;48.138;11.428;2023-07-20T02:52:58;95390.63;;;20.36;50.88
38225;BME280;24025;48.138;11.428;2023-07-20T02:55:30;95389.34;;;20.41;51.73
38225;BME280;24025;48.138;11.428;2023-07-20T02:58:01;95397.34;;;20.32;53.82
38225;BME280;24025;48.138;11.428;2023-07-20T03:00:35;95386.69;;;20.25;53.92
38225;BME280;24025;48.138;11.428;2023-07-20T03:03:07;95385.38;;;20.17;53.30
38225;BME280;24025;48.138;11.428;2023-07-20T03:05:41;95389.34;;;20.12;53.76
38225;BME280;24025;48.138;11.428;2023-07-20T03:08:13;95400.72;;;20.07;54.95
38225;BME280;24025;48.138;11.428;2023-07-20T03:10:44;95398.50;;;20.02;56.96
38225;BME280;24025;48.138;11.428;2023-07-20T03:13:16;95402.72;;;20.03;56.54
38225;BME280;24025;48.138;11.428;2023-07-20T03:15:48;95407.66;;;19.92;57.20
38225;BME280;24025;48.138;11.428;2023-07-20T03:18:19;95408.88;;;19.74;58.28
38225;BME280;24025;48.138;11.428;2023-07-20T03:20:51;95426.19;;;19.61;58.90
38225;BME280;24025;48.138;11.428;2023-07-20T03:23:22;95422.75;;;19.60;60.18
38225;BME280;24025;48.138;11.428;2023-07-20T03:25:54;95415.19;;;19.51;61.60
38225;BME280;24025;48.138;11.428;2023-07-20T03:28:26;95414.78;;;19.53;64.67
38225;BME280;24025;48.138;11.428;2023-07-20T03:30:58;95427.63;;;19.49;65.64
38225;BME280;24025;48.138;11.428;2023-07-20T03:33:30;95426.56;;;19.10;65.57
38225;BME280;24025;48.138;11.428;2023-07-20T03:36:02;95427.50;;;19.20;68.47
38225;BME280;24025;48.138;11.428;2023-07-20T03:38:34;95431.50;;;18.95;68.03
38225;BME280;24025;48.138;11.428;2023-07-20T03:41:05;95428.28;;;18.64;67.52
38225;BME280;24025;48.138;11.428;2023-07-20T03:43:37;95432.63;;;18.58;69.88
38225;BME280;24025;48.138;11.428;2023-07-20T03:46:08;95427.78;;;18.50;71.30
38225;BME280;24025;48.138;11.428;2023-07-20T03:48:40;95435.94;;;18.46;71.22
38225;BME280;24025;48.138;11.428;2023-07-20T03:51:12;95427.09;;;18.46;70.69
38225;BME280;24025;48.138;11.428;2023-07-20T03:53:43;95429.44;;;18.44;69.91
38225;BME280;24025;48.138;11.428;2023-07-20T03:56:15;95426.63;;;18.51;69.22
38225;BME280;24025;48.138;11.428;2023-07-20T03:58:46;95430.97;;;18.45;70.69
38225;BME280;24025;48.138;11.428;2023-07-20T04:01:18;95439.16;;;18.41;72.76
38225;BME280;24025;48.138;11.428;2023-07-20T04:03:49;95433.88;;;18.54;71.09
38225;BME280;24025;48.138;11.428;2023-07-20T04:06:21;95425.97;;;18.63;73.44
38225;BME280;24025;48.138;11.428;2023-07-20T04:08:54;95423.59;;;18.68;70.41
38225;BME280;24025;48.138;11.428;2023-07-20T04:11:25;95428.84;;;18.76;70.77
38225;BME280;24025;48.138;11.428;2023-07-20T04:13:57;95437.22;;;18.81;70.78
38225;BME280;24025;48.138;11.428;2023-07-20T04:16:29;95441.78;;;18.84;68.86
38225;BME280;24025;48.138;11.428;2023-07-20T04:19:00;95432.97;;;18.80;69.56
38225;BME280;24025;48.138;11.428;2023-07-20T04:21:32;95438.00;;;18.82;69.11
38225;BME280;24025;48.138;11.428;2023-07-20T04:24:03;95440.19;;;18.87;70.08
38225;BME280;24025;48.138;11.428;2023-07-20T04:26:36;95435.22;;;18.85;70.04
38225;BME280;24025;48.138;11.428;2023-07-20T04:29:08;95444.78;;;18.70;70.10
38225;BME280;24025;48.138;11.428;2023-07-20T04:31:39;95440.78;;;18.55;69.46
38225;BME280;24025;48.138;11.428;2023-07-20T04:34:11;95448.84;;;18.58;68.87
38225;BME280;24025;48.138;11.428;2023-07-20T04:36:43;95442.69;;;18.58;71.30
38225;BME280;24025;48.138;11.428;2023-07-20T04:39:17;95451.25;;;18.53;69.41
38225;BME280;24025;48.138;11.428;2023-07-20T04:42:02;95441.84;;;18.61;68.94
38225;BME280;24025;48.138;11.428;2023-07-20T04:44:34;95458.88;;;18.58;68.53
38225;BME280;24025;48.138;11.428;2023-07-20T04:47:05;95454.59;;;18.60;68.08
38225;BME280;24025;48.138;11.428;2023-07-20T04:49:37;95459.66;;;18.58;68.78
38225;BME280;24025;48.138;11.428;2023-07-20T04:52:08;95458.38;;;18.63;69.25
38225;BME280;24025;48.138;11.428;2023-07-20T04:54:40;95466.03;;;18.68;69.85
38225;BME280;24025;48.138;11.428;2023-07-20T04:57:12;95469.03;;;18.74;69.88
38225;BME280;24025;48.138;11.428;2023-07-20T04:59:44;95473.81;;;18.66;68.03
38225;BME280;24025;48.138;11.428;2023-07-20T05:02:16;95476.09;;;18.67;68.43
38225;BME280;24025;48.138;11.428;2023-07-20T05:04:47;95464.69;;;18.36;68.80
38225;BME280;24025;48.138;11.428;2023-07-20T05:07:19;95464.06;;;18.49;67.61
38225;BME280;24025;48.138;11.428;2023-07-20T05:09:50;95460.97;;;18.50;64.68
38225;BME280;24025;48.138;11.428;2023-07-20T05:12:22;95466.91;;;18.42;65.50
38225;BME280;24025;48.138;11.428;2023-07-20T05:14:53;95463.19;;;18.55;65.26
38225;BME280;24025;48.138;11.428;2023-07-20T05:17:25;95462.88;;;18.30;63.00
38225;BME280;24025;48.138;11.428;2023-07-20T05:19:56;95465.81;;;18.39;60.46
38225;BME280;24025;48.138;11.428;2023-07-20T05:22:28;95462.91;;;18.50;58.27
38225;BME280;24025;48.138;11.428;2023-07-20T05:25:00;95467.00;;;18.58;59.10
38225;BME280;24025;48.138;11.428;2023-07-20T05:27:31;95458.38;;;18.66;58.59
38225;BME280;24025;48.138;11.428;2023-07-20T05:30:04;95465.09;;;18.55;57.59
38225;BME280;24025;48.138;11.428;2023-07-20T05:32:36;95470.03;;;18.60;57.28
38225;BME280;24025;48.138;11.428;2023-07-20T05:35:07;95465.84;;;18.35;55.74
38225;BME280;24025;48.138;11.428;2023-07-20T05:37:40;95466.69;;;18.52;54.84
38225;BME280;24025;48.138;11.428;2023-07-20T05:40:12;95472.38;;;18.58;55.40
38225;BME280;24025;48.138;11.428;2023-07-20T05:42:45;95479.09;;;18.50;54.33
38225;BME280;24025;48.138;11.428;2023-07-20T05:45:17;95466.03;;;18.68;55.04
38225;BME280;24025;48.138;11.428;2023-07-20T05:47:49;95475.34;;;18.67;54.32
38225;BME280;24025;48.138;11.428;2023-07-20T05:50:21;95469.03;;;18.74;53.87
38225;BME280;24025;48.138;11.428;2023-07-20T05:52:52;95481.16;;;18.85;54.68
38225;BME280;24025;48.138;11.428;2023-07-20T05:55:24;95474.06;;;18.72;51.97
38225;BME280;24025;48.138;11.428;2023-07-20T05:57:56;95483.00;;;18.68;52.02
38225;BME280;24025;48.138;11.428;2023-07-20T06:00:27;95479.47;;;18.72;52.67
38225;BME280;24025;48.138;11.428;2023-07-20T06:02:59;95474.63;;;18.83;53.11
38225;BME280;24025;48.138;11.428;2023-07-20T06:05:31;95482.31;;;18.84;52.11
38225;BME280;24025;48.138;11.428;2023-07-20T06:08:03;95487.31;;;18.86;51.59
38225;BME280;24025;48.138;11.428;2023-07-20T06:10:34;95488.13;;;19.03;52.29
38225;BME280;24025;48.138;11.428;2023-07-20T06:13:06;95490.53;;;19.17;51.71
38225;BME280;24025;48.138;11.428;2023-07-20T06:15:37;95484.09;;;19.11;51.24
38225;BME280;24025;48.138;11.428;2023-07-20T06:18:10;95486.25;;;19.19;51.18
38225;BME280;24025;48.138;11.428;2023-07-20T06:20:42;95486.47;;;19.09;50.95
38225;BME280;24025;48.138;11.428;2023-07-20T06:23:13;95486.00;;;18.94;51.65
38225;BME280;24025;48.138;11.428;2023-07-20T06:25:45;95483.94;;;19.18;51.79
38225;BME280;24025;48.138;11.428;2023-07-20T06:28:17;95485.03;;;18.84;50.65
38225;BME280;24025;48.138;11.428;2023-07-20T06:30:49;95478.72;;;18.91;51.40
38225;BME280;24025;48.138;11.428;2023-07-20T06:33:22;95481.91;;;19.22;51.43
38225;BME280;24025;48.138;11.428;2023-07-20T06:35:53;95482.16;;;19.11;50.37
38225;BME280;24025;48.138;11.428;2023-07-20T06:38:25;95481.19;;;19.38;51.11
38225;BME280;24025;48.138;11.428;2023-07-20T06:41:00;95475.97;;;19.47;50.43
38225;BME280;24025;48.138;11.428;2023-07-20T06:43:34;95464.88;;;19.41;50.59
38225;BME280;24025;48.138;11.428;2023-07-20T06:46:09;95469.97;;;19.39;50.61
38225;BME280;24025;48.138;11.428;2023-07-20T06:48:41;95471.81;;;19.42;50.58
38225;BME280;24025;48.138;11.428;2023-07-20T06:51:15;95477.97;;;19.63;50.68
38225;BME280;24025;48.138;11.428;2023-07-20T06:53:48;95478.16;;;19.52;50.67
38225;BME280;24025;48.138;11.428;2023-07-20T06:56:19;95478.16;;;19.52;49.90
38225;BME280;24025;48.138;11.428;2023-07-20T06:58:55;95473.94;;;19.51;49.79
38225;BME280;24025;48.138;11.428;2023-07-20T07:01:26;95487.78;;;19.37;50.34
38225;BME280;24025;48.138;11.428;2023-07-20T07:03:58;95480.97;;;19.48;49.23
38225;BME280;24025;48.138;11.428;2023-07-20T07:06:30;95472.75;;;19.52;49.88
38225;BME280;24025;48.138;11.428;2023-07-20T07:09:01;95473.56;;;19.69;49.75
38225;BME280;24025;48.138;11.428;2023-07-20T07:11:33;95477.19;;;19.95;48.85
38225;BME280;24025;48.138;11.428;2023-07-20T07:14:05;95461.69;;;20.12;48.58
38225;BME280;24025;48.138;11.428;2023-07-20T07:16:36;95469.78;;;20.28;47.12
38225;BME280;24025;48.138;11.428;2023-07-20T07:19:10;95465.75;;;20.20;47.18
38225;BME280;24025;48.138;11.428;2023-07-20T07:21:41;95468.91;;;20.02;47.20
38225;BME280;24025;48.138;11.428;2023-07-20T07:24:13;95471.78;;;20.40;47.50
38225;BME280;24025;48.138;11.428;2023-07-20T07:26:49;95467.22;;;20.53;46.57
38225;BME280;24025;48.138;11.428;2023-07-20T07:29:21;95470.19;;;20.59;47.03
38225;BME280;24025;48.138;11.428;2023-07-20T07:31:52;95469.25;;;20.78;45.93
38225;BME280;24025;48.138;11.428;2023-07-20T07:34:24;95467.94;;;20.70;46.83
38225;BME280;24025;48.138;11.428;2023-07-20T07:36:56;95476.88;;;20.54;45.90
38225;BME280;24025;48.138;11.428;2023-07-20T07:39:27;95477.13;;;20.73;45.93
38225;BME280;24025;48.138;11.428;2023-07-20T07:42:04;95478.03;;;20.82;45.71
38225;BME280;24025;48.138;11.428;2023-07-20T07:44:36;95474.16;;;20.96;45.92
38225;BME280;24025;48.138;11.428;2023-07-20T07:47:08;95472.22;;;21.09;45.60
38225;BME280;24025;48.138;11.428;2023-07-20T07:49:39;95475.50;;;21.17;45.24
38225;BME280;24025;48.138;11.428;2023-07-20T07:52:11;95474.53;;;21.24;44.84
38225;BME280;24025;48.138;11.428;2023-07-20T07:54:42;95475.28;;;21.24;44.95
38225;BME280;24025;48.138;11.428;2023-07-20T07:57:14;95469.38;;;21.29;44.67
38225;BME280;24025;48.138;11.428;2023-07-20T07:59:46;95470.00;;;21.46;44.84
38225;BME280;24025;48.138;11.428;2023-07-20T08:02:17;95482.34;;;21.21;45.84
38225;BME280;24025;48.138;11.428;2023-07-20T08:04:49;95474.47;;;21.53;46.04
38225;BME280;24025;48.138;11.428;2023-07-20T08:07:23;95477.72;;;21.47;45.26
38225;BME280;24025;48.138;11.428;2023-07-20T08:09:55;95481.63;;;21.59;44.71
38225;BME280;24025;48.138;11.428;2023-07-20T08:12:26;95475.50;;;21.81;44.03
38225;BME280;24025;48.138;11.428;2023-07-20T08:14:58;95472.81;;;21.55;43.26
38225;BME280;24025;48.138;11.428;2023-07-20T08:17:30;95477.50;;;21.55;42.72
38225;BME280;24025;48.138;11.428;2023-07-20T08:20:02;95479.97;;;21.36;42.66
38225;BME280;24025;48.138;11.428;2023-07-20T08:22:33;95477.34;;;21.20;42.86
38225;BME280;24025;48.138;11.428;2023-07-20T08:25:06;95491.84;;;21.01;42.15
38225;BME280;24025;48.138;11.428;2023-07-20T08:27:38;95484.00;;;20.90;43.04
38225;BME280;24025;48.138;11.428;2023-07-20T08:30:09;95482.44;;;21.18;43.50
38225;BME280;24025;48.138;11.428;2023-07-20T08:32:41;95489.78;;;20.63;44.10
38225;BME280;24025;48.138;11.428;2023-07-20T08:35:13;95488.59;;;21.06;43.30
38225;BME280;24025;48.138;11.428;2023-07-20T08:37:46;95493.84;;;21.13;42.18
38225;BME280;24025;48.138;11.428;2023-07-20T08:40:18;95491.81;;;21.30;42.02
38225;BME280;24025;48.138;11.428;2023-07-20T08:42:50;95497.38;;;21.10;42.31
38225;BME280;24025;48.138;11.428;2023-07-20T08:45:22;95493.59;;;21.07;42.35
38225;BME280;24025;48.138;11.428;2023-07-20T08:47:58;95490.44;;;20.96;41.88
38225;BME280;24025;48.138;11.428;2023-07-20T08:50:30;95498.00;;;20.88;41.93
38225;BME280;24025;48.138;11.428;2023-07-20T08:53:02;95491.78;;;21.17;42.52
38225;BME280;24025;48.138;11.428;2023-07-20T08:55:35;95491.13;;;21.13;42.61
38225;BME280;24025;48.138;11.428;2023-07-20T08:58:08;95485.34;;;20.98;42.21
38225;BME280;24025;48.138;11.428;2023-07-20T09:00:43;95485.47;;;21.20;42.40
38225;BME280;24025;48.138;11.428;2023-07-20T09:03:17;95476.19;;;21.46;41.64
38225;BME280;24025;48.138;11.428;2023-07-20T09:05:49;95474.78;;;21.42;41.76
38225;BME280;24025;48.138;11.428;2023-07-20T09:08:21;95475.84;;;21.70;42.25
38225;BME280;24025;48.138;11.428;2023-07-20T09:10:53;95469.72;;;22.04;41.74
38225;BME280;24025;48.138;11.428;2023-07-20T09:13:25;95466.75;;;22.37;41.02
38225;BME280;24025;48.138;11.428;2023-07-20T09:15:58;95472.41;;;22.29;41.39
38225;BME280;24025;48.138;11.428;2023-07-20T09:18:32;95463.25;;;22.36;40.74
38225;BME280;24025;48.138;11.428;2023-07-20T09:21:05;95468.00;;;22.10;41.49
38225;BME280;24025;48.138;11.428;2023-07-20T09:23:38;95464.13;;;22.33;41.05
38225;BME280;24025;48.138;11.428;2023-07-20T09:26:13;95472.59;;;22.35;40.75
38225;BME280;24025;48.138;11.428;2023-07-20T09:28:53;95462.59;;;22.10;40.94
38225;BME280;24025;48.138;11.428;2023-07-20T09:31:26;95445.44;;;22.57;40.46
38225;BME280;24025;48.138;11.428;2023-07-20T17:14:44;95138.25;;;26.15;31.28
38225;BME280;24025;48.138;11.428;2023-07-20T17:17:17;95143.53;;;26.04;31.47
38225;BME280;24025;48.138;11.428;2023-07-20T17:19:49;95142.03;;;26.03;31.32
38225;BME280;24025;48.138;11.428;2023-07-20T17:22:41;95149.13;;;25.80;32.07
38225;BME280;24025;48.138;11.428;2023-07-20T17:25:12;95140.25;;;25.85;32.69
38225;BME280;24025;48.138;11.428;2023-07-20T17:27:47;95143.53;;;26.04;31.48
38225;BME280;24025;48.138;11.428;2023-07-20T17:30:22;95143.78;;;26.21;32.15
38225;BME280;24025;48.138;11.428;2023-07-20T17:32:54;95148.78;;;26.22;31.48
38225;BME280;24025;48.138;11.428;2023-07-20T17:35:26;95141.53;;;26.19;31.07
38225;BME280;24025;48.138;11.428;2023-07-20T17:37:59;95145.19;;;26.31;31.38
38225;BME280;24025;48.138;11.428;2023-07-20T17:40:33;95146.34;;;26.10;31.63
38225;BME280;24025;48.138;11.428;2023-07-20T17:43:08;95143.16;;;25.96;31.42
38225;BME280;24025;48.138;11.428;2023-07-20T17:45:39;95140.41;;;25.96;32.13
38225;BME280;24025;48.138;11.428;2023-07-20T17:48:11;95140.91;;;26.10;31.78
38225;BME280;24025;48.138;11.428;2023-07-20T17:50:43;95140.63;;;26.08;31.26
38225;BME280;24025;48.138;11.428;2023-07-20T17:53:15;95148.66;;;25.82;31.80
38225;BME280;24025;48.138;11.428;2023-07-20T17:55:46;95141.56;;;25.75;31.66
38225;BME280;24025;48.138;11.428;2023-07-20T17:58:18;95153.19;;;25.61;32.17
38225;BME280;24025;48.138;11.428;2023-07-20T18:00:50;95141.09;;;25.23;32.45
38225;BME280;24025;48.138;11.428;2023-07-20T18:03:23;95141.56;;;25.22;32.73
38225;BME280;24025;48.138;11.428;2023-07-20T18:05:55;95138.97;;;25.27;32.56
38225;BME280;24025;48.138;11.428;2023-07-20T18:08:29;95140.97;;;25.03;33.36
38225;BME280;24025;48.138;11.428;2023-07-20T18:11:03;95140.50;;;25.04;33.16
38225;BME280;24025;48.138;11.428;2023-07-20T18:13:35;95137.66;;;24.75;33.08
38225;BME280;24025;48.138;11.428;2023-07-20T18:16:06;95139.44;;;24.78;33.25
38225;BME280;24025;48.138;11.428;2023-07-20T18:18:38;95147.41;;;24.67;33.47
38225;BME280;24025;48.138;11.428;2023-07-20T18:21:10;95140.72;;;24.68;33.16
38225;BME280;24025;48.138;11.428;2023-07-20T18:23:41;95143.94;;;24.33;34.00
38225;BME280;24025;48.138;11.428;2023-07-20T18:26:13;95142.19;;;24.45;33.61
38225;BME280;24025;48.138;11.428;2023-07-20T18:28:45;95137.81;;;24.47;34.11
38225;BME280;24025;48.138;11.428;2023-07-20T18:31:16;95139.81;;;24.28;34.16
38225;BME280;24025;48.138;11.428;2023-07-20T18:33:48;95138.47;;;24.33;34.92
38225;BME280;24025;48.138;11.428;2023-07-20T18:36:22;95143.19;;;24.33;34.08
38225;BME280;24025;48.138;11.428;2023-07-20T18:38:54;95147.13;;;24.32;34.28
38225;BME280;24025;48.138;11.428;2023-07-20T18:41:25;95143.75;;;24.27;34.09
38225;BME280;24025;48.138;11.428;2023-07-20T18:43:57;95141.22;;;24.24;34.43
38225;BME280;24025;48.138;11.428;2023-07-20T18:46:29;95147.47;;;24.15;34.09
38225;BME280;24025;48.138;11.428;2023-07-20T18:49:01;95141.72;;;24.13;34.37
38225;BME280;24025;48.138;11.428;2023-07-20T18:51:32;95146.84;;;24.11;34.48
38225;BME280;24025;48.138;11.428;2023-07-20T18:54:04;95138.41;;;24.00;34.41
38225;BME280;24025;48.138;11.428;2023-07-20T18:56:36;95141.16;;;24.00;34.47
38225;BME280;24025;48.138;11.428;2023-07-20T18:59:07;95147.97;;;23.95;34.38
38225;BME280;24025;48.138;11.428;2023-07-20T19:01:39;95143.94;;;23.82;35.29
38225;BME280;24025;48.138;11.428;2023-07-20T19:04:10;95148.31;;;23.79;34.82
38225;BME280;24025;48.138;11.428;2023-07-20T19:06:42;95153.47;;;23.77;35.36
38225;BME280;24025;48.138;11.428;2023-07-20T19:09:13;95158.78;;;23.71;35.18
38225;BME280;24025;48.138;11.428;2023-07-20T19:11:46;95154.69;;;23.67;35.37
38225;BME280;24025;48.138;11.428;2023-07-20T19:14:20;95153.34;;;23.62;35.13
38225;BME280;24025;48.138;11.428;2023-07-20T19:16:52;95155.03;;;23.60;35.53
38225;BME280;24025;48.138;11.428;2023-07-20T19:19:23;95157.09;;;23.56;35.66
38225;BME280;24025;48.138;11.428;2023-07-20T19:21:55;95162.72;;;23.52;35.39
38225;BME280;24025;48.138;11.428;2023-07-20T19:24:26;95161.22;;;23.51;36.21
38225;BME280;24025;48.138;11.428;2023-07-20T19:26:58;95167.41;;;23.42;35.40
38225;BME280;24025;48.138;11.428;2023-07-20T19:29:30;95175.59;;;23.42;35.80
38225;BME280;24025;48.138;11.428;2023-07-20T19:32:02;95179.50;;;23.41;35.94
38225;BME280;24025;48.138;11.428;2023-07-20T19:34:33;95175.72;;;23.39;36.00
38225;BME280;24025;48.138;11.428;2023-07-20T19:37:05;95174.97;;;23.38;35.70
38225;BME280;24025;48.138;11.428;2023-07-20T19:39:37;95183.88;;;23.39;35.70
38225;BME280;24025;48.138;11.428;2023-07-20T19:42:08;95184.34;;;23.37;36.57
38225;BME280;24025;48.138;11.428;2023-07-20T19:44:40;95181.63;;;23.37;37.21
38225;BME280;24025;48.138;11.428;2023-07-20T19:47:12;95179.06;;;23.34;36.70
38225;BME280;24025;48.138;11.428;2023-07-20T19:49:43;95189.94;;;23.34;37.32
38225;BME280;24025;48.138;11.428;2023-07-20T19:52:15;95190.84;;;23.31;36.50
38225;BME280;24025;48.138;11.428;2023-07-20T19:54:46;95189.19;;;23.24;37.83
38225;BME280;24025;48.138;11.428;2023-07-20T19:57:18;95195.97;;;23.20;38.34
38225;BME280;24025;48.138;11.428;2023-07-20T19:59:52;95196.28;;;23.12;37.65
38225;BME280;24025;48.138;11.428;2023-07-20T20:02:25;95210.16;;;23.05;37.66
38225;BME280;24025;48.138;11.428;2023-07-20T20:05:17;95203.94;;;22.96;38.36
38225;BME280;24025;48.138;11.428;2023-07-20T20:07:48;95201.97;;;22.87;39.29
38225;BME280;24025;48.138;11.428;2023-07-20T20:10:21;95208.75;;;22.82;39.05
38225;BME280;24025;48.138;11.428;2023-07-20T20:12:52;95203.00;;;22.80;39.81
38225;BME280;24025;48.138;11.428;2023-07-20T20:15:24;95203.59;;;22.75;39.41
38225;BME280;24025;48.138;11.428;2023-07-20T20:17:57;95211.56;;;22.70;39.86
38225;BME280;24025;48.138;11.428;2023-07-20T20:20:31;95206.84;;;22.61;40.21
38225;BME280;24025;48.138;11.428;2023-07-20T20:23:15;95203.53;;;22.57;40.19
38225;BME280;24025;48.138;11.428;2023-07-20T20:25:48;95198.06;;;22.48;41.14
38225;BME280;24025;48.138;11.428;2023-07-20T20:28:20;95198.22;;;22.44;41.45
38225;BME280;24025;48.138;11.428;2023-07-20T20:30:53;95198.34;;;22.41;40.50
38225;BME280;24025;48.138;11.428;2023-07-20T20:33:26;95202.41;;;22.36;40.28
38225;BME280;24025;48.138;11.428;2023-07-20T20:35:59;95202.69;;;22.29;40.54
38225;BME280;24025;48.138;11.428;2023-07-20T20:38:31;95199.31;;;22.25;40.30
38225;BME280;24025;48.138;11.428;2023-07-20T20:41:05;95194.47;;;22.20;39.52
38225;BME280;24025;48.138;11.428;2023-07-20T20:43:38;95189.50;;;22.18;39.80
38225;BME280;24025;48.138;11.428;2023-07-20T20:46:09;95192.78;;;22.13;40.96
38225;BME280;24025;48.138;11.428;2023-07-20T20:48:42;95192.59;;;22.08;40.58
38225;BME280;24025;48.138;11.428;2023-07-20T20:51:17;95198.91;;;22.04;41.14
38225;BME280;24025;48.138;11.428;2023-07-20T20:53:48;95194.03;;;21.99;40.74
38225;BME280;24025;48.138;11.428;2023-07-20T20:56:20;95197.34;;;21.94;41.41
38225;BME280;24025;48.138;11.428;2023-07-20T20:58:52;95182.38;;;21.90;41.85
38225;BME280;24025;48.138;11.428;2023-07-20T21:01:27;95187.31;;;21.82;42.83
38225;BME280;24025;48.138;11.428;2023-07-20T21:03:58;95186.69;;;21.78;42.33
38225;BME280;24025;48.138;11.428;2023-07-20T21:06:30;95190.75;;;21.73;42.75